Orinda, CA (94563)

8:14 AM PDT on July 25, 2016 (GMT -0700)
| | Change Station

Elev -9999 ft 0.00 °N, 0.00 °E | Updated

Clear
Clear
66 °F
Feels Like 66 °F
N
8
Wind Variable Wind from SW
Gusts mph

Today
High -- | Low -- °F
--% Chance of Precip.
Yesterday
High -- | Low -- °F
Precip. -- in
Pressure 29.88 in
Visibility 10.0 miles
Clouds Clear
Dew Point 53 °F
Humidity 63%
Rainfall --
Snow Depth Not available.
6:06 AM 8:23 PM
Waning Gibbous, 65% visible
METAR KCCR 251453Z 34005KT 10SM CLR 18/11 A2992 RMK AO2 SLP117 T01780106 51011
Pressure 29.88 in
Visibility 10.0 miles
Clouds Clear
Dew Point 53 °F
Humidity 63%
Rainfall --
Snow Depth Not available.
6:06 AM 8:23 PM
Waning Gibbous, 65% visible
METAR KCCR 251453Z 34005KT 10SM CLR 18/11 A2992 RMK AO2 SLP117 T01780106 51011

10-Day Weather Forecast

Almanac

Astronomy

Jul. 25, 2016 Rise Set
Actual Time
Civil Twilight
Nautical Twilight
Astronomical Twilight
Moon
Length of Visible Light
Length of Day
Tomorrow will be .
, % of the Moon is Illuminated

Today's Extremes

State Highs State Lows

Community

WunderPhotos

Upload Photos

1,927,314 photos uploaded!

WunderBlog® & News

Nearby

Air Quality

  Air Quality AQ Index Pollutant
Not available.

Snow Depth

Station Depth Elevation

Earthquake Activity

City Distance Mag. Time & Date
Minimum magnitude displayed is 2.5.

Coastal Water Temperatures

Place Temperature

Stations

Nearby Weather Stations

Station Location Temp. Windchill Dew Point Humidity Wind Precip. Elev Updated Type
                   

Watches & Warnings

There are currently no watches in effect.